sensor_id;sensor_type;location;lat;lon;timestamp;P1;durP1;ratioP1;P2;durP2;ratioP2
37527;SDS011;23372;52.050;4.810;2023-03-11T00:02:10;4.00;;;0.70;;
37527;SDS011;23372;52.050;4.810;2023-03-11T00:04:36;7.97;;;0.80;;
37527;SDS011;23372;52.050;4.810;2023-03-11T00:07:04;9.83;;;2.03;;
37527;SDS011;23372;52.050;4.810;2023-03-11T00:09:30;6.63;;;1.60;;
37527;SDS011;23372;52.050;4.810;2023-03-11T00:11:56;3.50;;;0.97;;
37527;SDS011;23372;52.050;4.810;2023-03-11T00:14:21;4.83;;;0.50;;
37527;SDS011;23372;52.050;4.810;2023-03-11T00:16:47;3.67;;;0.67;;
37527;SDS011;23372;52.050;4.810;2023-03-11T00:19:12;5.37;;;0.80;;
37527;SDS011;23372;52.050;4.810;2023-03-11T00:21:38;2.23;;;0.50;;
37527;SDS011;23372;52.050;4.810;2023-03-11T00:24:04;5.03;;;0.80;;
37527;SDS011;23372;52.050;4.810;2023-03-11T00:26:30;8.50;;;0.80;;
37527;SDS011;23372;52.050;4.810;2023-03-11T00:28:55;4.77;;;1.00;;
37527;SDS011;23372;52.050;4.810;2023-03-11T00:31:21;4.40;;;0.90;;
37527;SDS011;23372;52.050;4.810;2023-03-11T00:33:47;5.77;;;1.10;;
37527;SDS011;23372;52.050;4.810;2023-03-11T00:36:17;3.60;;;0.83;;
37527;SDS011;23372;52.050;4.810;2023-03-11T00:38:52;7.40;;;1.53;;
37527;SDS011;23372;52.050;4.810;2023-03-11T00:41:19;5.90;;;1.10;;
37527;SDS011;23372;52.050;4.810;2023-03-11T00:43:45;4.27;;;0.83;;
37527;SDS011;23372;52.050;4.810;2023-03-11T00:46:10;5.17;;;0.90;;
37527;SDS011;23372;52.050;4.810;2023-03-11T00:48:36;2.93;;;0.80;;
37527;SDS011;23372;52.050;4.810;2023-03-11T00:51:02;4.87;;;0.77;;
37527;SDS011;23372;52.050;4.810;2023-03-11T00:53:28;3.33;;;0.90;;
37527;SDS011;23372;52.050;4.810;2023-03-11T00:55:53;4.93;;;0.97;;
37527;SDS011;23372;52.050;4.810;2023-03-11T00:58:19;3.10;;;0.73;;
37527;SDS011;23372;52.050;4.810;2023-03-11T01:00:46;5.03;;;0.70;;
37527;SDS011;23372;52.050;4.810;2023-03-11T01:03:12;5.13;;;1.10;;
37527;SDS011;23372;52.050;4.810;2023-03-11T01:05:38;3.20;;;0.60;;
37527;SDS011;23372;52.050;4.810;2023-03-11T01:08:04;3.37;;;0.83;;
37527;SDS011;23372;52.050;4.810;2023-03-11T01:10:31;5.10;;;1.17;;
37527;SDS011;23372;52.050;4.810;2023-03-11T01:12:57;5.80;;;1.00;;
37527;SDS011;23372;52.050;4.810;2023-03-11T01:15:34;6.27;;;1.20;;
37527;SDS011;23372;52.050;4.810;2023-03-11T01:18:01;3.53;;;0.70;;
37527;SDS011;23372;52.050;4.810;2023-03-11T01:20:27;5.87;;;1.00;;
37527;SDS011;23372;52.050;4.810;2023-03-11T01:22:53;4.80;;;0.87;;
37527;SDS011;23372;52.050;4.810;2023-03-11T01:25:19;8.63;;;1.00;;
37527;SDS011;23372;52.050;4.810;2023-03-11T01:27:47;4.40;;;0.80;;
37527;SDS011;23372;52.050;4.810;2023-03-11T01:30:14;3.20;;;0.80;;
37527;SDS011;23372;52.050;4.810;2023-03-11T01:32:42;5.50;;;1.07;;
37527;SDS011;23372;52.050;4.810;2023-03-11T01:35:10;4.63;;;1.33;;
37527;SDS011;23372;52.050;4.810;2023-03-11T01:37:37;4.40;;;1.00;;
37527;SDS011;23372;52.050;4.810;2023-03-11T01:40:03;4.07;;;0.90;;
37527;SDS011;23372;52.050;4.810;2023-03-11T01:42:29;3.07;;;1.10;;
37527;SDS011;23372;52.050;4.810;2023-03-11T01:44:54;4.73;;;0.80;;
37527;SDS011;23372;52.050;4.810;2023-03-11T01:47:54;5.20;;;1.07;;
37527;SDS011;23372;52.050;4.810;2023-03-11T01:50:12;4.13;;;0.90;;
37527;SDS011;23372;52.050;4.810;2023-03-11T01:52:38;2.80;;;0.80;;
37527;SDS011;23372;52.050;4.810;2023-03-11T01:55:04;8.07;;;0.97;;
37527;SDS011;23372;52.050;4.810;2023-03-11T01:57:31;5.20;;;0.80;;
37527;SDS011;23372;52.050;4.810;2023-03-11T01:59:57;4.57;;;0.90;;
37527;SDS011;23372;52.050;4.810;2023-03-11T02:02:33;3.13;;;0.70;;
37527;SDS011;23372;52.050;4.810;2023-03-11T02:05:05;7.13;;;1.10;;
37527;SDS011;23372;52.050;4.810;2023-03-11T02:07:31;4.20;;;0.70;;
37527;SDS011;23372;52.050;4.810;2023-03-11T02:09:57;3.83;;;0.87;;
37527;SDS011;23372;52.050;4.810;2023-03-11T02:12:23;4.60;;;0.90;;
37527;SDS011;23372;52.050;4.810;2023-03-11T02:14:49;5.17;;;1.03;;
37527;SDS011;23372;52.050;4.810;2023-03-11T02:17:18;2.63;;;0.70;;
37527;SDS011;23372;52.050;4.810;2023-03-11T02:22:17;4.47;;;0.70;;
37527;SDS011;23372;52.050;4.810;2023-03-11T02:24:49;5.73;;;1.00;;
37527;SDS011;23372;52.050;4.810;2023-03-11T02:27:23;2.47;;;1.03;;
37527;SDS011;23372;52.050;4.810;2023-03-11T02:29:51;3.03;;;0.90;;
37527;SDS011;23372;52.050;4.810;2023-03-11T02:32:18;8.33;;;1.20;;
37527;SDS011;23372;52.050;4.810;2023-03-11T02:34:45;2.33;;;0.70;;
37527;SDS011;23372;52.050;4.810;2023-03-11T02:37:12;3.00;;;0.73;;
37527;SDS011;23372;52.050;4.810;2023-03-11T02:39:39;4.53;;;0.97;;
37527;SDS011;23372;52.050;4.810;2023-03-11T02:42:17;3.00;;;0.80;;
37527;SDS011;23372;52.050;4.810;2023-03-11T02:44:44;5.50;;;1.00;;
37527;SDS011;23372;52.050;4.810;2023-03-11T02:47:13;4.17;;;0.90;;
37527;SDS011;23372;52.050;4.810;2023-03-11T02:49:40;3.20;;;0.90;;
37527;SDS011;23372;52.050;4.810;2023-03-11T02:52:06;6.10;;;0.80;;
37527;SDS011;23372;52.050;4.810;2023-03-11T02:54:31;9.40;;;1.30;;
37527;SDS011;23372;52.050;4.810;2023-03-11T02:56:57;3.47;;;0.77;;
37527;SDS011;23372;52.050;4.810;2023-03-11T02:59:23;5.23;;;1.30;;
37527;SDS011;23372;52.050;4.810;2023-03-11T03:01:48;2.23;;;0.60;;
37527;SDS011;23372;52.050;4.810;2023-03-11T03:04:14;7.87;;;0.87;;
37527;SDS011;23372;52.050;4.810;2023-03-11T03:06:39;5.03;;;0.90;;
37527;SDS011;23372;52.050;4.810;2023-03-11T03:09:05;6.37;;;0.73;;
37527;SDS011;23372;52.050;4.810;2023-03-11T03:11:30;3.63;;;0.70;;
37527;SDS011;23372;52.050;4.810;2023-03-11T03:13:56;3.03;;;0.70;;
37527;SDS011;23372;52.050;4.810;2023-03-11T03:16:21;4.10;;;0.97;;
37527;SDS011;23372;52.050;4.810;2023-03-11T03:18:47;2.67;;;0.73;;
37527;SDS011;23372;52.050;4.810;2023-03-11T03:21:12;4.33;;;0.70;;
37527;SDS011;23372;52.050;4.810;2023-03-11T03:23:38;1.53;;;0.90;;
37527;SDS011;23372;52.050;4.810;2023-03-11T03:26:04;2.87;;;0.70;;
37527;SDS011;23372;52.050;4.810;2023-03-11T03:28:30;3.60;;;0.70;;
37527;SDS011;23372;52.050;4.810;2023-03-11T03:31:01;3.93;;;0.90;;
37527;SDS011;23372;52.050;4.810;2023-03-11T03:33:28;2.40;;;0.80;;
37527;SDS011;23372;52.050;4.810;2023-03-11T03:35:53;8.40;;;2.60;;
37527;SDS011;23372;52.050;4.810;2023-03-11T03:38:19;2.07;;;0.70;;
37527;SDS011;23372;52.050;4.810;2023-03-11T03:40:45;4.27;;;0.80;;
37527;SDS011;23372;52.050;4.810;2023-03-11T03:43:11;4.00;;;1.03;;
37527;SDS011;23372;52.050;4.810;2023-03-11T03:45:37;4.47;;;1.33;;
37527;SDS011;23372;52.050;4.810;2023-03-11T03:48:02;5.40;;;1.20;;
37527;SDS011;23372;52.050;4.810;2023-03-11T03:50:28;6.23;;;1.40;;
37527;SDS011;23372;52.050;4.810;2023-03-11T03:52:54;5.67;;;1.20;;
37527;SDS011;23372;52.050;4.810;2023-03-11T03:55:19;7.33;;;0.90;;
37527;SDS011;23372;52.050;4.810;2023-03-11T03:57:45;5.53;;;0.80;;
37527;SDS011;23372;52.050;4.810;2023-03-11T04:00:11;9.27;;;1.20;;
37527;SDS011;23372;52.050;4.810;2023-03-11T04:02:37;3.17;;;0.90;;
37527;SDS011;23372;52.050;4.810;2023-03-11T04:05:03;6.13;;;1.20;;
37527;SDS011;23372;52.050;4.810;2023-03-11T04:07:28;7.30;;;1.50;;
37527;SDS011;23372;52.050;4.810;2023-03-11T04:09:54;4.10;;;1.10;;
37527;SDS011;23372;52.050;4.810;2023-03-11T04:12:19;4.93;;;1.13;;
37527;SDS011;23372;52.050;4.810;2023-03-11T04:14:45;4.07;;;1.13;;
37527;SDS011;23372;52.050;4.810;2023-03-11T04:17:11;3.27;;;0.90;;
37527;SDS011;23372;52.050;4.810;2023-03-11T04:19:38;7.00;;;1.53;;
37527;SDS011;23372;52.050;4.810;2023-03-11T04:22:03;7.37;;;1.20;;
37527;SDS011;23372;52.050;4.810;2023-03-11T04:24:29;8.70;;;1.10;;
37527;SDS011;23372;52.050;4.810;2023-03-11T04:26:55;2.87;;;1.37;;
37527;SDS011;23372;52.050;4.810;2023-03-11T04:29:20;3.73;;;0.80;;
37527;SDS011;23372;52.050;4.810;2023-03-11T04:31:46;3.10;;;1.00;;
37527;SDS011;23372;52.050;4.810;2023-03-11T04:34:11;5.93;;;0.80;;
37527;SDS011;23372;52.050;4.810;2023-03-11T04:36:37;5.30;;;0.90;;
37527;SDS011;23372;52.050;4.810;2023-03-11T04:39:03;5.27;;;0.90;;
37527;SDS011;23372;52.050;4.810;2023-03-11T04:41:29;2.13;;;0.87;;
37527;SDS011;23372;52.050;4.810;2023-03-11T04:43:54;3.20;;;0.60;;
37527;SDS011;23372;52.050;4.810;2023-03-11T04:46:20;5.83;;;1.07;;
37527;SDS011;23372;52.050;4.810;2023-03-11T04:48:45;9.83;;;1.07;;
37527;SDS011;23372;52.050;4.810;2023-03-11T04:51:11;5.90;;;1.07;;
37527;SDS011;23372;52.050;4.810;2023-03-11T04:53:37;5.07;;;1.07;;
37527;SDS011;23372;52.050;4.810;2023-03-11T04:56:02;4.87;;;0.83;;
37527;SDS011;23372;52.050;4.810;2023-03-11T04:58:28;3.90;;;0.80;;
37527;SDS011;23372;52.050;4.810;2023-03-11T05:00:54;5.70;;;0.80;;
37527;SDS011;23372;52.050;4.810;2023-03-11T05:03:20;3.13;;;1.00;;
37527;SDS011;23372;52.050;4.810;2023-03-11T05:05:45;4.57;;;0.70;;
37527;SDS011;23372;52.050;4.810;2023-03-11T05:08:11;6.77;;;0.73;;
37527;SDS011;23372;52.050;4.810;2023-03-11T05:10:38;3.20;;;1.00;;
37527;SDS011;23372;52.050;4.810;2023-03-11T05:13:04;3.23;;;0.80;;
37527;SDS011;23372;52.050;4.810;2023-03-11T05:15:30;8.80;;;0.80;;
37527;SDS011;23372;52.050;4.810;2023-03-11T05:17:55;7.47;;;0.90;;
37527;SDS011;23372;52.050;4.810;2023-03-11T05:20:21;1.07;;;0.47;;
37527;SDS011;23372;52.050;4.810;2023-03-11T05:22:47;1.87;;;0.70;;
37527;SDS011;23372;52.050;4.810;2023-03-11T05:25:13;5.70;;;0.70;;
37527;SDS011;23372;52.050;4.810;2023-03-11T05:27:38;1.60;;;0.90;;
37527;SDS011;23372;52.050;4.810;2023-03-11T05:30:04;3.27;;;0.73;;
37527;SDS011;23372;52.050;4.810;2023-03-11T05:32:30;5.20;;;1.37;;
37527;SDS011;23372;52.050;4.810;2023-03-11T05:34:56;3.97;;;1.37;;
37527;SDS011;23372;52.050;4.810;2023-03-11T05:37:21;7.97;;;1.10;;
37527;SDS011;23372;52.050;4.810;2023-03-11T05:39:47;4.40;;;0.87;;
37527;SDS011;23372;52.050;4.810;2023-03-11T05:42:12;2.63;;;0.77;;
37527;SDS011;23372;52.050;4.810;2023-03-11T05:44:38;4.03;;;0.80;;
37527;SDS011;23372;52.050;4.810;2023-03-11T05:47:05;3.40;;;0.83;;
37527;SDS011;23372;52.050;4.810;2023-03-11T05:49:31;3.13;;;0.63;;
37527;SDS011;23372;52.050;4.810;2023-03-11T05:51:56;4.97;;;1.10;;
37527;SDS011;23372;52.050;4.810;2023-03-11T05:54:22;4.50;;;0.73;;
37527;SDS011;23372;52.050;4.810;2023-03-11T05:56:47;7.20;;;0.80;;
37527;SDS011;23372;52.050;4.810;2023-03-11T05:59:13;2.90;;;0.80;;
37527;SDS011;23372;52.050;4.810;2023-03-11T06:01:40;2.30;;;0.90;;
37527;SDS011;23372;52.050;4.810;2023-03-11T06:04:07;5.90;;;0.90;;
37527;SDS011;23372;52.050;4.810;2023-03-11T06:06:33;3.50;;;0.60;;
37527;SDS011;23372;52.050;4.810;2023-03-11T06:08:58;1.63;;;0.73;;
37527;SDS011;23372;52.050;4.810;2023-03-11T06:11:24;4.87;;;0.97;;
37527;SDS011;23372;52.050;4.810;2023-03-11T06:13:54;2.80;;;0.90;;
37527;SDS011;23372;52.050;4.810;2023-03-11T06:16:21;5.43;;;1.27;;
37527;SDS011;23372;52.050;4.810;2023-03-11T06:18:48;2.30;;;1.03;;
37527;SDS011;23372;52.050;4.810;2023-03-11T06:21:21;3.50;;;0.90;;
37527;SDS011;23372;52.050;4.810;2023-03-11T06:23:48;6.83;;;1.40;;
37527;SDS011;23372;52.050;4.810;2023-03-11T06:26:15;2.93;;;1.07;;
37527;SDS011;23372;52.050;4.810;2023-03-11T06:28:43;5.33;;;1.00;;
37527;SDS011;23372;52.050;4.810;2023-03-11T06:31:10;2.27;;;1.03;;
37527;SDS011;23372;52.050;4.810;2023-03-11T06:33:43;6.37;;;1.50;;
37527;SDS011;23372;52.050;4.810;2023-03-11T06:36:11;5.87;;;2.20;;
37527;SDS011;23372;52.050;4.810;2023-03-11T06:38:38;12.10;;;3.93;;
37527;SDS011;23372;52.050;4.810;2023-03-11T06:41:04;10.10;;;3.17;;
37527;SDS011;23372;52.050;4.810;2023-03-11T06:43:31;7.03;;;3.20;;
37527;SDS011;23372;52.050;4.810;2023-03-11T06:45:58;8.27;;;2.63;;
37527;SDS011;23372;52.050;4.810;2023-03-11T06:48:25;3.00;;;1.67;;
37527;SDS011;23372;52.050;4.810;2023-03-11T06:50:57;4.53;;;1.67;;
37527;SDS011;23372;52.050;4.810;2023-03-11T06:53:24;4.90;;;1.60;;
37527;SDS011;23372;52.050;4.810;2023-03-11T06:55:57;5.93;;;1.67;;
37527;SDS011;23372;52.050;4.810;2023-03-11T06:58:26;8.90;;;3.10;;
37527;SDS011;23372;52.050;4.810;2023-03-11T07:00:52;6.60;;;2.20;;
37527;SDS011;23372;52.050;4.810;2023-03-11T07:03:17;4.47;;;2.07;;
37527;SDS011;23372;52.050;4.810;2023-03-11T07:05:43;8.97;;;2.63;;
37527;SDS011;23372;52.050;4.810;2023-03-11T07:08:09;5.43;;;2.57;;
37527;SDS011;23372;52.050;4.810;2023-03-11T07:10:35;9.63;;;2.40;;
37527;SDS011;23372;52.050;4.810;2023-03-11T07:13:01;6.20;;;2.37;;
37527;SDS011;23372;52.050;4.810;2023-03-11T07:15:26;5.57;;;2.17;;
37527;SDS011;23372;52.050;4.810;2023-03-11T07:17:52;4.73;;;1.97;;
37527;SDS011;23372;52.050;4.810;2023-03-11T07:20:17;11.10;;;2.00;;
37527;SDS011;23372;52.050;4.810;2023-03-11T07:22:43;5.73;;;1.80;;
37527;SDS011;23372;52.050;4.810;2023-03-11T07:25:09;5.93;;;1.90;;
37527;SDS011;23372;52.050;4.810;2023-03-11T07:27:34;3.53;;;1.90;;
37527;SDS011;23372;52.050;4.810;2023-03-11T07:30:00;9.00;;;2.20;;
37527;SDS011;23372;52.050;4.810;2023-03-11T07:32:26;3.77;;;1.97;;
37527;SDS011;23372;52.050;4.810;2023-03-11T07:34:52;5.30;;;1.70;;
37527;SDS011;23372;52.050;4.810;2023-03-11T07:37:17;4.25;;;2.08;;
37527;SDS011;23372;52.050;4.810;2023-03-11T07:39:43;5.63;;;1.60;;
37527;SDS011;23372;52.050;4.810;2023-03-11T07:42:08;6.70;;;1.70;;
37527;SDS011;23372;52.050;4.810;2023-03-11T07:44:34;9.43;;;1.97;;
37527;SDS011;23372;52.050;4.810;2023-03-11T07:47:03;6.83;;;2.07;;
37527;SDS011;23372;52.050;4.810;2023-03-11T07:49:30;7.40;;;2.40;;
37527;SDS011;23372;52.050;4.810;2023-03-11T07:51:56;8.60;;;2.90;;
37527;SDS011;23372;52.050;4.810;2023-03-11T07:54:21;8.20;;;2.97;;
37527;SDS011;23372;52.050;4.810;2023-03-11T07:56:47;9.57;;;3.93;;
37527;SDS011;23372;52.050;4.810;2023-03-11T07:59:12;8.67;;;3.67;;
37527;SDS011;23372;52.050;4.810;2023-03-11T08:01:38;7.13;;;3.77;;
37527;SDS011;23372;52.050;4.810;2023-03-11T08:04:06;4.97;;;3.10;;
37527;SDS011;23372;52.050;4.810;2023-03-11T08:06:33;6.77;;;3.00;;
37527;SDS011;23372;52.050;4.810;2023-03-11T08:09:01;8.63;;;2.30;;
37527;SDS011;23372;52.050;4.810;2023-03-11T08:11:29;6.77;;;2.00;;
37527;SDS011;23372;52.050;4.810;2023-03-11T08:13:55;5.67;;;2.10;;
37527;SDS011;23372;52.050;4.810;2023-03-11T08:16:22;4.38;;;1.95;;
37527;SDS011;23372;52.050;4.810;2023-03-11T08:18:48;5.40;;;2.67;;
37527;SDS011;23372;52.050;4.810;2023-03-11T08:21:16;4.70;;;1.67;;
37527;SDS011;23372;52.050;4.810;2023-03-11T08:23:44;4.20;;;1.80;;
37527;SDS011;23372;52.050;4.810;2023-03-11T08:26:13;3.23;;;1.27;;
37527;SDS011;23372;52.050;4.810;2023-03-11T08:28:41;4.23;;;1.53;;
37527;SDS011;23372;52.050;4.810;2023-03-11T08:33:40;9.00;;;1.47;;
37527;SDS011;23372;52.050;4.810;2023-03-11T08:36:06;6.33;;;2.10;;
37527;SDS011;23372;52.050;4.810;2023-03-11T08:38:32;7.47;;;2.40;;
37527;SDS011;23372;52.050;4.810;2023-03-11T08:40:58;4.53;;;1.70;;
37527;SDS011;23372;52.050;4.810;2023-03-11T08:43:24;2.50;;;1.27;;
37527;SDS011;23372;52.050;4.810;2023-03-11T08:45:50;7.23;;;1.63;;
37527;SDS011;23372;52.050;4.810;2023-03-11T08:48:16;5.17;;;2.13;;
37527;SDS011;23372;52.050;4.810;2023-03-11T08:50:42;6.67;;;1.33;;
37527;SDS011;23372;52.050;4.810;2023-03-11T08:53:07;6.53;;;1.70;;
37527;SDS011;23372;52.050;4.810;2023-03-11T08:55:33;5.37;;;1.80;;
37527;SDS011;23372;52.050;4.810;2023-03-11T08:57:59;9.53;;;2.27;;
37527;SDS011;23372;52.050;4.810;2023-03-11T09:00:25;5.83;;;1.63;;
37527;SDS011;23372;52.050;4.810;2023-03-11T09:02:50;8.67;;;2.97;;
37527;SDS011;23372;52.050;4.810;2023-03-11T09:05:16;7.10;;;1.80;;
37527;SDS011;23372;52.050;4.810;2023-03-11T09:07:42;4.30;;;1.60;;
37527;SDS011;23372;52.050;4.810;2023-03-11T09:10:08;5.97;;;1.43;;
37527;SDS011;23372;52.050;4.810;2023-03-11T09:12:36;7.57;;;1.37;;
37527;SDS011;23372;52.050;4.810;2023-03-11T09:15:01;4.87;;;1.10;;
37527;SDS011;23372;52.050;4.810;2023-03-11T09:17:27;7.20;;;1.40;;
37527;SDS011;23372;52.050;4.810;2023-03-11T09:19:53;1.80;;;0.87;;
37527;SDS011;23372;52.050;4.810;2023-03-11T09:22:18;9.53;;;2.47;;
37527;SDS011;23372;52.050;4.810;2023-03-11T09:24:44;5.73;;;0.83;;
37527;SDS011;23372;52.050;4.810;2023-03-11T09:27:09;6.13;;;1.40;;
37527;SDS011;23372;52.050;4.810;2023-03-11T09:29:37;6.13;;;1.13;;
37527;SDS011;23372;52.050;4.810;2023-03-11T09:32:02;4.03;;;1.70;;
37527;SDS011;23372;52.050;4.810;2023-03-11T09:34:28;5.60;;;1.77;;
37527;SDS011;23372;52.050;4.810;2023-03-11T09:36:53;6.37;;;1.90;;
37527;SDS011;23372;52.050;4.810;2023-03-11T09:39:19;4.90;;;1.50;;
37527;SDS011;23372;52.050;4.810;2023-03-11T09:41:46;2.73;;;0.97;;
37527;SDS011;23372;52.050;4.810;2023-03-11T09:44:23;6.37;;;1.57;;
37527;SDS011;23372;52.050;4.810;2023-03-11T09:47:13;3.13;;;0.77;;
37527;SDS011;23372;52.050;4.810;2023-03-11T09:58:38;5.10;;;1.03;;
37527;SDS011;23372;52.050;4.810;2023-03-11T10:01:11;5.90;;;1.80;;
37527;SDS011;23372;52.050;4.810;2023-03-11T10:03:42;10.00;;;1.60;;
37527;SDS011;23372;52.050;4.810;2023-03-11T10:06:16;4.27;;;1.80;;
37527;SDS011;23372;52.050;4.810;2023-03-11T10:08:46;2.33;;;0.97;;
37527;SDS011;23372;52.050;4.810;2023-03-11T10:11:22;6.73;;;1.37;;
37527;SDS011;23372;52.050;4.810;2023-03-11T10:16:34;5.10;;;1.47;;
37527;SDS011;23372;52.050;4.810;2023-03-11T10:19:28;7.80;;;2.43;;
37527;SDS011;23372;52.050;4.810;2023-03-11T10:27:24;11.27;;;2.77;;
37527;SDS011;23372;52.050;4.810;2023-03-11T10:32:59;6.13;;;2.47;;
37527;SDS011;23372;52.050;4.810;2023-03-11T10:35:35;9.10;;;2.80;;
37527;SDS011;23372;52.050;4.810;2023-03-11T10:41:05;6.63;;;2.43;;
37527;SDS011;23372;52.050;4.810;2023-03-11T10:43:44;8.47;;;2.90;;
37527;SDS011;23372;52.050;4.810;2023-03-11T10:46:31;5.87;;;1.40;;
37527;SDS011;23372;52.050;4.810;2023-03-11T10:48:57;6.47;;;2.90;;
37527;SDS011;23372;52.050;4.810;2023-03-11T10:51:23;7.63;;;1.50;;
37527;SDS011;23372;52.050;4.810;2023-03-11T10:53:52;5.13;;;1.70;;
37527;SDS011;23372;52.050;4.810;2023-03-11T11:05:04;7.47;;;2.90;;
37527;SDS011;23372;52.050;4.810;2023-03-11T11:07:43;8.63;;;2.53;;
37527;SDS011;23372;52.050;4.810;2023-03-11T11:10:26;11.90;;;1.30;;
37527;SDS011;23372;52.050;4.810;2023-03-11T11:15:24;10.33;;;5.07;;
37527;SDS011;23372;52.050;4.810;2023-03-11T11:17:50;4.20;;;1.57;;
37527;SDS011;23372;52.050;4.810;2023-03-11T11:20:19;5.30;;;1.53;;
37527;SDS011;23372;52.050;4.810;2023-03-11T11:22:52;5.13;;;1.03;;
37527;SDS011;23372;52.050;4.810;2023-03-11T11:25:36;8.53;;;4.00;;
37527;SDS011;23372;52.050;4.810;2023-03-11T11:28:14;2.83;;;1.00;;
37527;SDS011;23372;52.050;4.810;2023-03-11T11:33:50;4.70;;;1.07;;
37527;SDS011;23372;52.050;4.810;2023-03-11T11:36:15;4.47;;;0.83;;
37527;SDS011;23372;52.050;4.810;2023-03-11T11:38:42;3.23;;;1.33;;
37527;SDS011;23372;52.050;4.810;2023-03-11T11:41:08;8.40;;;1.50;;
37527;SDS011;23372;52.050;4.810;2023-03-11T11:43:59;3.50;;;0.80;;
37527;SDS011;23372;52.050;4.810;2023-03-11T11:46:35;3.93;;;0.97;;
37527;SDS011;23372;52.050;4.810;2023-03-11T11:51:50;7.27;;;1.03;;
37527;SDS011;23372;52.050;4.810;2023-03-11T11:55:25;5.63;;;1.30;;
37527;SDS011;23372;52.050;4.810;2023-03-11T11:57:37;4.07;;;1.00;;
37527;SDS011;23372;52.050;4.810;2023-03-11T12:00:02;4.23;;;0.90;;
37527;SDS011;23372;52.050;4.810;2023-03-11T12:05:22;3.13;;;1.17;;
37527;SDS011;23372;52.050;4.810;2023-03-11T12:07:56;3.63;;;1.00;;
37527;SDS011;23372;52.050;4.810;2023-03-11T12:10:56;3.50;;;0.90;;
37527;SDS011;23372;52.050;4.810;2023-03-11T12:16:21;5.50;;;1.93;;
37527;SDS011;23372;52.050;4.810;2023-03-11T12:18:58;7.00;;;1.33;;
37527;SDS011;23372;52.050;4.810;2023-03-11T12:29:50;3.40;;;1.70;;
37527;SDS011;23372;52.050;4.810;2023-03-11T12:35:13;4.20;;;1.20;;
37527;SDS011;23372;52.050;4.810;2023-03-11T12:37:54;4.73;;;1.80;;
37527;SDS011;23372;52.050;4.810;2023-03-11T12:46:07;5.13;;;1.17;;
37527;SDS011;23372;52.050;4.810;2023-03-11T12:56:58;7.50;;;1.47;;
37527;SDS011;23372;52.050;4.810;2023-03-11T13:02:19;4.00;;;1.20;;
37527;SDS011;23372;52.050;4.810;2023-03-11T13:05:16;5.60;;;1.27;;
37527;SDS011;23372;52.050;4.810;2023-03-11T13:07:53;3.20;;;1.00;;
37527;SDS011;23372;52.050;4.810;2023-03-11T13:18:38;2.77;;;0.90;;
37527;SDS011;23372;52.050;4.810;2023-03-11T13:32:16;4.70;;;1.10;;
37527;SDS011;23372;52.050;4.810;2023-03-11T13:41:30;7.03;;;1.10;;
37527;SDS011;23372;52.050;4.810;2023-03-11T13:43:59;5.80;;;1.60;;
37527;SDS011;23372;52.050;4.810;2023-03-11T13:46:48;2.63;;;0.77;;
37527;SDS011;23372;52.050;4.810;2023-03-11T13:49:27;6.70;;;1.03;;
37527;SDS011;23372;52.050;4.810;2023-03-11T13:52:02;2.90;;;0.70;;
37527;SDS011;23372;52.050;4.810;2023-03-11T13:54:41;2.47;;;0.90;;
37527;SDS011;23372;52.050;4.810;2023-03-11T13:57:26;4.20;;;1.23;;
37527;SDS011;23372;52.050;4.810;2023-03-11T13:59:54;4.97;;;1.00;;
37527;SDS011;23372;52.050;4.810;2023-03-11T14:02:24;4.03;;;0.87;;
37527;SDS011;23372;52.050;4.810;2023-03-11T14:05:01;3.77;;;0.97;;
37527;SDS011;23372;52.050;4.810;2023-03-11T14:07:31;5.37;;;0.93;;
37527;SDS011;23372;52.050;4.810;2023-03-11T14:10:18;8.87;;;1.40;;
37527;SDS011;23372;52.050;4.810;2023-03-11T14:12:50;6.17;;;0.90;;
37527;SDS011;23372;52.050;4.810;2023-03-11T14:17:50;3.77;;;1.00;;
37527;SDS011;23372;52.050;4.810;2023-03-11T14:20:19;5.67;;;1.00;;
37527;SDS011;23372;52.050;4.810;2023-03-11T14:22:49;0.80;;;0.60;;
37527;SDS011;23372;52.050;4.810;2023-03-11T14:25:18;3.60;;;0.60;;
37527;SDS011;23372;52.050;4.810;2023-03-11T14:27:56;8.27;;;1.30;;
37527;SDS011;23372;52.050;4.810;2023-03-11T14:30:27;5.27;;;1.27;;
37527;SDS011;23372;52.050;4.810;2023-03-11T14:33:01;2.10;;;0.70;;
37527;SDS011;23372;52.050;4.810;2023-03-11T14:35:48;2.80;;;1.07;;
37527;SDS011;23372;52.050;4.810;2023-03-11T14:38:30;8.40;;;0.93;;
37527;SDS011;23372;52.050;4.810;2023-03-11T14:41:00;2.00;;;0.60;;
37527;SDS011;23372;52.050;4.810;2023-03-11T14:43:30;3.93;;;0.73;;
37527;SDS011;23372;52.050;4.810;2023-03-11T14:45:58;8.53;;;0.90;;
37527;SDS011;23372;52.050;4.810;2023-03-11T14:48:36;3.37;;;0.90;;
37527;SDS011;23372;52.050;4.810;2023-03-11T14:51:04;4.30;;;0.93;;
37527;SDS011;23372;52.050;4.810;2023-03-11T14:53:42;6.37;;;1.00;;
37527;SDS011;23372;52.050;4.810;2023-03-11T14:56:20;3.33;;;1.00;;
37527;SDS011;23372;52.050;4.810;2023-03-11T15:01:30;0.93;;;0.60;;
37527;SDS011;23372;52.050;4.810;2023-03-11T15:04:14;6.80;;;1.10;;
37527;SDS011;23372;52.050;4.810;2023-03-11T15:06:50;2.67;;;0.70;;
37527;SDS011;23372;52.050;4.810;2023-03-11T15:09:17;4.07;;;0.90;;
37527;SDS011;23372;52.050;4.810;2023-03-11T15:14:30;3.20;;;0.80;;
37527;SDS011;23372;52.050;4.810;2023-03-11T15:17:15;6.17;;;0.83;;
37527;SDS011;23372;52.050;4.810;2023-03-11T15:19:41;3.17;;;0.80;;
37527;SDS011;23372;52.050;4.810;2023-03-11T15:24:58;5.37;;;1.00;;
37527;SDS011;23372;52.050;4.810;2023-03-11T15:27:29;4.87;;;1.03;;
37527;SDS011;23372;52.050;4.810;2023-03-11T15:29:55;10.20;;;1.30;;
37527;SDS011;23372;52.050;4.810;2023-03-11T15:32:22;6.40;;;1.30;;
37527;SDS011;23372;52.050;4.810;2023-03-11T15:37:37;8.83;;;1.30;;
37527;SDS011;23372;52.050;4.810;2023-03-11T15:42:44;8.07;;;1.17;;
37527;SDS011;23372;52.050;4.810;2023-03-11T15:45:17;8.93;;;1.87;;
37527;SDS011;23372;52.050;4.810;2023-03-11T15:47:45;4.40;;;0.80;;
37527;SDS011;23372;52.050;4.810;2023-03-11T15:50:13;6.33;;;0.63;;
37527;SDS011;23372;52.050;4.810;2023-03-11T15:52:40;8.23;;;0.83;;
37527;SDS011;23372;52.050;4.810;2023-03-11T15:55:06;8.83;;;0.93;;
37527;SDS011;23372;52.050;4.810;2023-03-11T15:57:34;6.13;;;1.00;;
37527;SDS011;23372;52.050;4.810;2023-03-11T15:59:59;5.43;;;1.10;;
37527;SDS011;23372;52.050;4.810;2023-03-11T16:02:26;5.30;;;0.93;;
37527;SDS011;23372;52.050;4.810;2023-03-11T16:04:54;5.27;;;0.70;;
37527;SDS011;23372;52.050;4.810;2023-03-11T16:07:20;2.60;;;0.80;;
37527;SDS011;23372;52.050;4.810;2023-03-11T16:09:46;2.87;;;0.80;;
37527;SDS011;23372;52.050;4.810;2023-03-11T16:12:13;5.93;;;0.53;;
37527;SDS011;23372;52.050;4.810;2023-03-11T16:14:40;5.43;;;0.97;;
37527;SDS011;23372;52.050;4.810;2023-03-11T16:17:06;5.87;;;0.70;;
37527;SDS011;23372;52.050;4.810;2023-03-11T16:19:31;5.63;;;0.80;;
37527;SDS011;23372;52.050;4.810;2023-03-11T16:21:57;3.23;;;0.73;;
37527;SDS011;23372;52.050;4.810;2023-03-11T16:24:23;5.07;;;0.60;;
37527;SDS011;23372;52.050;4.810;2023-03-11T16:26:49;5.50;;;0.63;;
37527;SDS011;23372;52.050;4.810;2023-03-11T16:29:17;8.67;;;1.10;;
37527;SDS011;23372;52.050;4.810;2023-03-11T16:31:43;4.83;;;0.90;;
37527;SDS011;23372;52.050;4.810;2023-03-11T16:34:09;4.97;;;1.20;;
37527;SDS011;23372;52.050;4.810;2023-03-11T16:36:34;4.13;;;1.73;;
37527;SDS011;23372;52.050;4.810;2023-03-11T16:39:00;2.53;;;0.70;;
37527;SDS011;23372;52.050;4.810;2023-03-11T16:41:25;5.60;;;1.10;;
37527;SDS011;23372;52.050;4.810;2023-03-11T16:43:51;7.37;;;1.10;;
37527;SDS011;23372;52.050;4.810;2023-03-11T16:46:17;3.20;;;1.40;;
37527;SDS011;23372;52.050;4.810;2023-03-11T16:48:43;6.27;;;1.20;;
37527;SDS011;23372;52.050;4.810;2023-03-11T16:51:08;3.77;;;0.90;;
37527;SDS011;23372;52.050;4.810;2023-03-11T16:53:34;4.33;;;0.90;;
37527;SDS011;23372;52.050;4.810;2023-03-11T16:55:59;1.90;;;0.80;;
37527;SDS011;23372;52.050;4.810;2023-03-11T16:58:25;8.27;;;1.27;;